createdAt,value
2022-09-23T05:25:17.463Z,428.00
2022-09-23T05:26:17.174Z,452.00
2022-09-23T05:27:17.192Z,476.00
2022-09-23T05:28:17.121Z,504.00
2022-09-23T05:29:17.136Z,528.00
2022-09-23T05:30:17.099Z,548.00
2022-09-23T05:31:20.320Z,568.00
2022-09-23T05:32:17.076Z,588.00
2022-09-23T05:33:17.074Z,608.00
2022-09-23T05:34:17.027Z,624.00
2022-09-23T05:35:17.038Z,636.00
2022-09-23T05:36:17.034Z,648.00
2022-09-23T05:37:17.001Z,660.00
2022-09-23T05:38:16.997Z,668.00
2022-09-23T05:39:17.017Z,676.00
2022-09-23T05:40:17.103Z,684.00
2022-09-23T05:41:16.958Z,700.00
2022-09-23T05:42:16.954Z,708.00
2022-09-23T05:43:16.957Z,724.00
2022-09-23T05:44:16.912Z,740.00
2022-09-23T05:45:16.899Z,756.00
2022-09-23T05:46:16.950Z,776.00
2022-09-23T05:47:16.882Z,804.00
2022-09-23T05:48:17.159Z,828.00
2022-09-23T05:49:17.133Z,852.00
2022-09-23T05:50:16.858Z,884.00
2022-09-23T05:51:16.847Z,912.00
2022-09-23T05:52:16.809Z,948.00
2022-09-23T05:53:17.019Z,980.00
2022-09-23T05:54:16.813Z,1016.00
2022-09-23T05:55:16.796Z,1052.00
2022-09-23T05:56:16.762Z,1096.00
2022-09-23T05:57:16.748Z,1136.00
2022-09-23T05:58:16.747Z,1176.00
2022-09-23T05:59:20.469Z,1216.00
2022-09-23T06:00:17.694Z,1248.00
2022-09-23T06:01:16.777Z,1272.00
2022-09-23T06:02:16.757Z,1292.00
2022-09-23T06:03:16.736Z,1300.00
2022-09-23T06:04:16.702Z,1304.00
2022-09-23T06:05:16.661Z,1308.00
2022-09-23T06:06:16.613Z,1308.00
2022-09-23T06:07:16.673Z,1304.00
2022-09-23T06:08:16.599Z,1300.00
2022-09-23T06:09:16.680Z,1296.00
2022-09-23T06:10:17.542Z,1288.00
2022-09-23T06:11:16.578Z,1272.00
2022-09-23T06:12:16.550Z,1268.00
2022-09-23T06:13:16.539Z,1252.00
2022-09-23T06:14:16.836Z,1240.00
2022-09-23T06:15:16.498Z,1216.00
2022-09-23T06:16:16.806Z,1200.00
2022-09-23T06:17:18.379Z,1184.00
2022-09-23T06:18:16.479Z,1168.00
2022-09-23T06:19:16.455Z,1152.00
2022-09-23T06:20:16.429Z,1136.00
2022-09-23T06:21:16.488Z,1124.00
2022-09-23T06:22:16.444Z,1116.00
2022-09-23T06:23:16.444Z,1108.00
2022-09-23T06:24:20.417Z,1104.00
2022-09-23T06:25:17.480Z,1100.00
2022-09-23T06:26:16.373Z,1096.00
2022-09-23T06:27:16.366Z,1084.00
2022-09-23T06:28:16.348Z,1076.00
2022-09-23T06:29:16.343Z,1068.00
2022-09-23T06:30:16.367Z,1060.00
2022-09-23T06:31:16.418Z,1052.00
2022-09-23T06:32:18.963Z,1048.00
2022-09-23T06:33:19.271Z,1048.00
2022-09-23T06:34:16.497Z,1052.00
2022-09-23T06:35:24.679Z,1060.00
2022-09-23T06:36:33.361Z,1076.00
2022-09-23T06:37:20.530Z,1092.00
2022-09-23T06:38:16.250Z,1108.00
2022-09-23T06:39:16.238Z,1132.00
2022-09-23T06:40:16.339Z,1156.00
2022-09-23T06:41:16.178Z,1176.00
2022-09-23T06:42:16.463Z,1204.00
2022-09-23T06:43:16.208Z,1232.00
2022-09-23T06:44:16.704Z,1260.00
2022-09-23T06:45:16.160Z,1288.00
2022-09-23T06:46:16.146Z,1316.00
2022-09-23T06:47:16.106Z,1348.00
2022-09-23T06:48:16.125Z,1380.00
2022-09-23T06:49:16.328Z,1416.00
2022-09-23T06:50:16.059Z,1444.00
2022-09-23T06:51:16.047Z,1472.00
2022-09-23T06:52:16.025Z,1508.00
2022-09-23T06:53:16.104Z,1548.00
2022-09-23T06:54:16.006Z,1584.00
2022-09-23T06:55:16.132Z,1612.00
2022-09-23T06:56:15.968Z,1648.00
2022-09-23T06:57:16.021Z,1676.00
2022-09-23T06:58:15.932Z,1712.00
2022-09-23T06:59:16.204Z,1744.00
2022-09-23T07:00:15.947Z,1792.00
2022-09-23T07:01:16.023Z,1844.00
2022-09-23T07:02:16.209Z,1908.00
2022-09-23T07:03:15.900Z,1960.00
2022-09-23T07:04:15.877Z,2004.00
2022-09-23T07:05:15.849Z,2052.00
2022-09-23T07:06:15.843Z,2104.00
2022-09-23T07:07:15.848Z,2168.00
2022-09-23T07:08:15.815Z,2192.00
2022-09-23T07:09:15.857Z,2268.00
2022-09-23T07:10:16.028Z,2368.00
2022-09-23T07:11:19.684Z,2408.00
2022-09-23T07:12:15.768Z,2464.00
2022-09-23T07:13:16.452Z,2508.00
2022-09-23T07:14:15.821Z,2536.00
2022-09-23T07:15:15.739Z,2580.00
2022-09-23T07:16:15.782Z,2656.00
2022-09-23T07:17:15.708Z,2748.00
2022-09-23T07:18:16.648Z,2776.00
2022-09-23T07:19:15.719Z,2868.00
2022-09-23T07:20:15.719Z,2968.00
2022-09-23T07:21:15.976Z,3084.00
2022-09-23T07:22:15.645Z,3176.00
2022-09-23T07:23:15.622Z,3332.00
2022-09-23T07:24:15.630Z,3460.00
2022-09-23T07:25:15.600Z,3540.00
2022-09-23T07:26:15.581Z,3600.00
2022-09-23T07:27:15.589Z,3680.00
2022-09-23T07:28:15.551Z,3768.00
2022-09-23T07:29:16.279Z,3848.00
2022-09-23T07:30:23.827Z,3880.00
2022-09-23T07:31:22.619Z,3888.00
2022-09-23T07:32:16.966Z,3992.00
2022-09-23T07:33:28.544Z,4140.00
2022-09-23T07:34:17.026Z,4152.00
2022-09-23T07:35:15.491Z,4164.00
2022-09-23T07:36:15.457Z,4208.00
2022-09-23T07:37:15.462Z,4216.00
2022-09-23T07:38:15.439Z,4272.00
2022-09-23T07:39:16.094Z,4296.00
2022-09-23T07:40:15.463Z,4256.00
2022-09-23T07:41:15.396Z,4180.00
2022-09-23T07:42:15.381Z,4312.00
2022-09-23T07:43:15.362Z,4332.00
2022-09-23T07:44:15.414Z,4332.00
2022-09-23T07:45:15.373Z,4352.00
2022-09-23T07:46:15.334Z,4352.00
2022-09-23T07:47:15.354Z,4348.00
2022-09-23T07:48:15.285Z,4348.00
2022-09-23T07:49:15.328Z,4400.00
2022-09-23T07:50:15.533Z,4380.00
2022-09-23T07:51:15.647Z,4328.00
2022-09-23T07:52:15.255Z,4288.00
2022-09-23T07:53:15.224Z,4260.00
2022-09-23T07:54:15.281Z,4216.00
2022-09-23T07:55:18.886Z,4192.00
2022-09-23T07:56:16.206Z,4156.00
2022-09-23T07:57:15.175Z,4116.00
2022-09-23T07:58:15.166Z,4068.00
2022-09-23T07:59:15.202Z,4036.00
2022-09-23T08:00:15.179Z,3996.00
2022-09-23T08:01:15.272Z,3944.00
2022-09-23T08:02:15.170Z,3876.00
2022-09-23T08:03:15.214Z,3840.00
2022-09-23T08:04:15.132Z,3792.00
2022-09-23T08:05:15.071Z,3736.00
2022-09-23T08:06:15.055Z,3680.00
2022-09-23T08:07:15.056Z,3624.00
2022-09-23T08:08:15.039Z,3576.00
2022-09-23T08:09:15.117Z,3540.00
2022-09-23T08:10:14.998Z,3472.00
2022-09-23T08:11:14.997Z,3376.00
2022-09-23T08:12:16.148Z,3288.00
2022-09-23T08:13:14.998Z,3188.00
2022-09-23T08:14:14.966Z,3096.00
2022-09-23T08:15:14.956Z,3024.00
2022-09-23T08:16:16.683Z,2996.00
2022-09-23T08:17:14.926Z,3000.00
2022-09-23T08:18:14.899Z,2984.00
2022-09-23T08:19:14.908Z,2988.00
2022-09-23T08:20:14.930Z,3008.00
2022-09-23T08:21:14.911Z,3056.00
2022-09-23T08:22:14.856Z,3100.00
2022-09-23T08:23:14.837Z,3152.00
2022-09-23T08:24:14.871Z,3188.00
2022-09-23T08:25:14.835Z,3192.00
2022-09-23T08:26:21.285Z,3220.00
2022-09-23T08:27:15.807Z,3248.00
2022-09-23T08:28:14.832Z,3372.00
2022-09-23T08:29:14.781Z,3404.00
2022-09-23T08:30:15.745Z,3484.00
2022-09-23T08:31:14.782Z,3528.00
2022-09-23T08:32:14.728Z,3560.00
2022-09-23T08:33:15.389Z,3580.00
2022-09-23T08:34:14.812Z,3628.00
2022-09-23T08:35:14.689Z,3672.00
2022-09-23T08:36:14.680Z,3684.00
2022-09-23T08:37:14.723Z,3728.00
2022-09-23T08:38:14.650Z,3776.00
2022-09-23T08:39:14.637Z,3804.00
2022-09-23T08:40:14.689Z,3760.00
2022-09-23T08:41:14.650Z,3856.00
2022-09-23T08:42:14.622Z,3972.00
2022-09-23T08:43:14.627Z,4044.00
2022-09-23T08:44:14.569Z,4128.00
2022-09-23T08:45:14.567Z,4208.00
2022-09-23T08:46:14.676Z,4276.00
2022-09-23T08:47:14.550Z,4340.00
2022-09-23T08:48:14.829Z,4424.00
2022-09-23T08:49:14.491Z,4484.00
2022-09-23T08:50:14.505Z,4556.00
2022-09-23T08:51:14.742Z,4648.00
2022-09-23T08:52:14.469Z,4696.00
2022-09-23T08:53:14.453Z,4780.00
2022-09-23T08:54:14.464Z,4792.00
2022-09-23T08:55:14.522Z,4812.00
2022-09-23T08:56:14.439Z,4828.00
2022-09-23T08:57:15.082Z,4856.00
2022-09-23T08:58:24.906Z,4884.00
2022-09-23T08:59:15.406Z,4936.00
2022-09-23T09:00:15.069Z,4932.00
2022-09-23T09:01:14.449Z,4836.00
2022-09-23T09:02:14.393Z,4840.00
2022-09-23T09:03:16.016Z,4660.00
2022-09-23T09:04:14.334Z,4528.00
2022-09-23T09:05:14.370Z,4332.00
2022-09-23T09:06:14.281Z,4328.00
2022-09-23T09:08:15.322Z,4664.00
2022-09-23T09:09:14.249Z,4884.00
2022-09-23T09:10:14.239Z,5008.00
2022-09-23T09:11:16.172Z,4840.00
2022-09-23T09:12:14.255Z,5044.00
2022-09-23T09:13:14.187Z,5208.00
2022-09-23T09:14:14.167Z,5188.00
2022-09-23T09:15:14.165Z,5156.00
2022-09-23T09:16:14.200Z,5056.00
2022-09-23T09:17:14.151Z,4992.00
2022-09-23T09:18:14.149Z,4940.00
2022-09-23T09:19:14.123Z,4880.00
2022-09-23T09:20:14.101Z,4876.00
2022-09-23T09:21:14.091Z,4768.00
2022-09-23T09:22:14.098Z,4628.00
2022-09-23T09:23:14.091Z,4636.00
2022-09-23T09:24:14.068Z,4764.00
2022-09-23T09:25:14.477Z,4792.00
2022-09-23T09:26:18.857Z,4780.00
2022-09-23T09:27:14.003Z,4740.00
2022-09-23T09:28:13.988Z,4760.00
2022-09-23T09:29:34.144Z,4904.00
2022-09-23T09:30:15.037Z,5068.00
2022-09-23T09:31:14.014Z,5228.00
2022-09-23T09:32:13.938Z,5404.00
2022-09-23T09:33:13.980Z,5600.00
2022-09-23T09:34:14.160Z,5872.00
2022-09-23T09:35:14.192Z,6296.00
2022-09-23T09:36:14.408Z,6668.00
2022-09-23T09:37:13.956Z,6852.00
2022-09-23T09:38:13.854Z,6940.00
2022-09-23T09:39:13.862Z,7084.00
2022-09-23T09:40:13.867Z,7340.00
2022-09-23T09:41:13.832Z,7612.00
2022-09-23T09:42:13.828Z,7880.00
2022-09-23T09:43:13.787Z,8112.00
2022-09-23T09:44:13.791Z,8268.00
2022-09-23T09:45:13.758Z,8476.00
2022-09-23T09:46:14.289Z,8668.00
2022-09-23T09:47:13.742Z,8828.00
2022-09-23T09:48:13.724Z,9080.00
2022-09-23T09:49:13.699Z,9452.00
2022-09-23T09:50:13.736Z,10616.00
2022-09-23T09:51:13.690Z,29152.00
2022-09-23T09:52:13.701Z,47552.00
2022-09-23T09:53:13.662Z,49376.00
2022-09-23T09:54:13.615Z,48768.00
2022-09-23T09:55:13.659Z,46112.00
2022-09-23T09:56:13.598Z,46400.00
2022-09-23T09:57:13.552Z,45408.00
2022-09-23T09:58:13.540Z,41280.00
2022-09-23T09:59:13.626Z,39104.00
2022-09-23T10:00:13.512Z,23232.00
2022-09-23T10:01:15.267Z,10256.00
2022-09-23T10:02:13.498Z,8844.00
2022-09-23T10:03:13.479Z,8348.00
2022-09-23T10:04:13.516Z,7944.00
2022-09-23T10:05:13.456Z,7676.00
2022-09-23T10:06:13.479Z,7808.00
2022-09-23T10:07:13.451Z,7532.00
2022-09-23T10:08:13.440Z,7468.00
2022-09-23T10:09:13.398Z,7660.00
2022-09-23T10:10:22.425Z,7728.00
2022-09-23T10:11:14.692Z,7624.00
2022-09-23T10:12:13.375Z,7736.00
2022-09-23T10:13:13.352Z,8140.00
2022-09-23T10:14:13.337Z,8460.00
2022-09-23T10:15:13.332Z,8628.00
2022-09-23T10:16:13.403Z,8824.00
2022-09-23T10:17:13.304Z,8956.00
2022-09-23T10:18:13.329Z,9108.00
2022-09-23T10:19:15.182Z,9184.00
2022-09-23T10:20:13.254Z,9380.00
2022-09-23T10:21:13.317Z,9388.00
2022-09-23T10:22:13.274Z,9436.00
2022-09-23T10:23:13.273Z,9516.00
2022-09-23T10:24:13.205Z,9704.00
2022-09-23T10:25:13.184Z,9836.00
2022-09-23T10:26:13.183Z,9952.00
2022-09-23T10:27:13.169Z,10088.00
2022-09-23T10:28:13.144Z,10224.00
2022-09-23T10:29:13.145Z,10364.00
2022-09-23T10:30:13.121Z,10484.00
2022-09-23T10:31:13.179Z,10556.00
2022-09-23T10:32:13.114Z,10664.00
2022-09-23T10:33:13.080Z,10804.00
2022-09-23T10:34:13.073Z,10896.00
2022-09-23T10:35:13.122Z,10968.00
2022-09-23T10:36:13.296Z,11068.00
2022-09-23T10:37:15.766Z,11120.00
2022-09-23T10:38:13.059Z,11168.00
2022-09-23T10:39:13.023Z,11236.00
2022-09-23T10:40:13.079Z,11264.00
2022-09-23T10:41:12.997Z,11352.00
2022-09-23T10:42:12.979Z,11452.00
2022-09-23T10:43:12.961Z,11452.00
2022-09-23T10:44:12.964Z,11472.00
2022-09-23T10:45:12.924Z,11552.00
2022-09-23T10:46:13.016Z,11656.00
2022-09-23T10:47:12.946Z,11768.00
2022-09-23T10:48:12.898Z,11796.00
2022-09-23T10:49:12.886Z,11920.00
2022-09-23T10:50:12.899Z,12128.00
2022-09-23T10:51:12.875Z,12932.00
2022-09-23T10:52:12.852Z,14848.00
2022-09-23T10:53:17.792Z,14336.00
2022-09-23T10:54:12.808Z,13076.00
2022-09-23T10:55:12.880Z,13072.00
2022-09-23T10:56:13.091Z,12496.00
2022-09-23T10:57:12.766Z,11884.00
2022-09-23T10:58:12.792Z,11696.00
2022-09-23T10:59:12.745Z,11612.00
2022-09-23T11:00:12.746Z,11664.00
2022-09-23T11:01:12.792Z,11912.00
2022-09-23T11:02:12.707Z,12028.00
2022-09-23T11:03:12.746Z,12196.00
2022-09-23T11:04:12.990Z,12384.00
2022-09-23T11:05:12.676Z,12484.00
2022-09-23T11:06:12.714Z,12404.00
2022-09-23T11:07:12.651Z,12328.00
2022-09-23T11:08:12.636Z,12196.00
2022-09-23T11:09:12.651Z,12008.00
2022-09-23T11:10:23.194Z,11868.00
2022-09-23T11:11:13.611Z,11648.00
2022-09-23T11:12:12.597Z,11372.00
2022-09-23T11:13:12.581Z,11068.00
2022-09-23T11:14:12.546Z,10808.00
2022-09-23T11:15:12.559Z,10632.00
2022-09-23T11:16:12.678Z,10476.00
2022-09-23T11:17:12.531Z,10272.00
2022-09-23T11:18:12.489Z,10068.00
2022-09-23T11:19:15.234Z,9920.00
2022-09-23T11:20:12.964Z,9696.00
2022-09-23T11:21:13.011Z,9456.00
2022-09-23T11:22:12.511Z,9276.00
2022-09-23T11:23:12.430Z,9104.00
2022-09-23T11:24:12.482Z,8976.00
2022-09-23T11:25:12.415Z,8884.00
2022-09-23T11:26:12.462Z,8832.00
2022-09-23T11:27:12.411Z,8828.00
2022-09-23T11:28:12.377Z,8836.00
2022-09-23T11:29:12.346Z,8764.00
2022-09-23T11:30:12.388Z,8700.00
2022-09-23T11:31:12.515Z,8604.00
2022-09-23T11:32:12.597Z,8500.00
2022-09-23T11:33:12.333Z,8564.00
2022-09-23T11:34:12.336Z,8816.00
2022-09-23T11:35:12.281Z,9140.00
2022-09-23T11:36:12.288Z,9460.00
2022-09-23T11:37:12.262Z,9828.00
2022-09-23T11:38:12.290Z,10388.00
2022-09-23T11:39:12.233Z,10924.00
2022-09-23T11:40:12.334Z,11560.00
2022-09-23T11:41:12.460Z,11720.00
2022-09-23T11:42:12.226Z,11648.00
2022-09-23T11:43:12.245Z,12496.00
2022-09-23T11:44:12.169Z,13708.00
2022-09-23T11:45:12.154Z,13236.00
2022-09-23T11:46:12.475Z,13440.00
2022-09-23T11:47:12.118Z,13148.00
2022-09-23T11:48:12.131Z,13024.00
2022-09-23T11:49:12.092Z,12260.00
2022-09-23T11:50:12.142Z,11520.00
2022-09-23T11:51:12.096Z,12000.00
2022-09-23T11:52:12.426Z,11820.00
2022-09-23T11:53:12.053Z,12208.00
2022-09-23T11:54:12.092Z,13160.00
2022-09-23T11:55:20.338Z,14060.00
2022-09-23T11:56:17.252Z,13552.00
2022-09-23T11:57:13.042Z,15808.00
2022-09-23T11:58:22.340Z,16512.00
2022-09-23T11:59:13.169Z,15808.00
2022-09-23T12:00:12.108Z,17696.00
2022-09-23T12:01:11.976Z,18016.00
2022-09-23T12:02:19.291Z,17696.00
2022-09-23T12:03:16.897Z,17728.00
2022-09-23T12:04:20.024Z,16672.00
2022-09-23T12:05:13.066Z,17632.00
2022-09-23T12:06:12.171Z,17504.00
2022-09-23T12:07:11.882Z,17792.00
2022-09-23T12:08:11.851Z,18048.00
2022-09-23T12:09:11.845Z,17664.00
2022-09-23T12:10:12.015Z,17920.00
2022-09-23T12:11:11.825Z,16576.00
2022-09-23T12:12:11.800Z,14500.00
2022-09-23T12:13:11.798Z,13048.00
2022-09-23T12:14:11.790Z,12404.00
2022-09-23T12:15:12.136Z,12368.00
2022-09-23T12:16:11.802Z,12540.00
2022-09-23T12:17:11.766Z,12656.00
2022-09-23T12:18:11.756Z,12748.00
2022-09-23T12:19:12.003Z,12864.00
2022-09-23T12:20:11.814Z,12916.00
2022-09-23T12:21:22.424Z,12916.00
2022-09-23T12:22:12.677Z,12972.00
2022-09-23T12:23:11.664Z,12980.00
2022-09-23T12:24:15.900Z,12528.00
2022-09-23T12:25:12.666Z,12112.00
2022-09-23T12:26:11.654Z,11788.00
2022-09-23T12:27:11.623Z,11784.00
2022-09-23T12:28:11.728Z,11804.00
2022-09-23T12:29:11.615Z,11812.00
2022-09-23T12:30:11.622Z,12104.00
2022-09-23T12:31:13.363Z,12504.00
2022-09-23T12:32:12.436Z,12800.00
2022-09-23T12:33:11.540Z,13224.00
2022-09-23T12:34:11.524Z,13272.00
2022-09-23T12:35:11.630Z,12952.00
2022-09-23T12:36:11.484Z,13072.00
2022-09-23T12:37:11.502Z,13684.00
2022-09-23T12:38:11.597Z,13976.00
2022-09-23T12:39:11.792Z,14944.00
2022-09-23T12:40:11.573Z,14120.00
2022-09-23T12:41:11.734Z,14284.00
2022-09-23T12:42:11.410Z,13524.00
2022-09-23T12:43:11.415Z,13300.00
2022-09-23T12:44:11.408Z,12684.00
2022-09-23T12:45:11.406Z,12052.00
2022-09-23T12:46:11.446Z,11328.00
2022-09-23T12:47:11.639Z,11024.00
2022-09-23T12:48:11.342Z,10968.00
2022-09-23T12:49:11.339Z,10956.00
2022-09-23T12:50:16.626Z,11012.00
2022-09-23T12:51:12.300Z,11284.00
2022-09-23T12:52:11.331Z,11624.00
2022-09-23T12:53:11.299Z,12180.00
2022-09-23T12:54:11.285Z,12624.00
2022-09-23T12:55:11.283Z,14136.00
2022-09-23T12:56:11.275Z,14544.00
2022-09-23T12:57:11.224Z,15168.00
2022-09-23T12:58:11.539Z,15360.00
2022-09-23T12:59:11.201Z,15232.00
2022-09-23T13:00:11.265Z,14944.00
2022-09-23T13:01:11.343Z,14396.00
2022-09-23T13:02:11.261Z,14976.00
2022-09-23T13:03:11.158Z,14976.00
2022-09-23T13:04:11.167Z,14472.00
2022-09-23T13:05:11.137Z,14432.00
2022-09-23T13:06:11.141Z,14752.00
2022-09-23T13:07:11.087Z,15040.00
2022-09-23T13:08:11.145Z,14288.00
2022-09-23T13:09:13.794Z,13868.00
2022-09-23T13:10:11.171Z,13008.00
2022-09-23T13:11:11.062Z,12240.00
2022-09-23T13:12:11.038Z,11948.00
2022-09-23T13:13:11.053Z,11596.00
2022-09-23T13:14:10.999Z,11192.00
2022-09-23T13:15:11.054Z,10904.00
2022-09-23T13:16:11.018Z,10696.00
2022-09-23T13:17:10.993Z,10444.00
2022-09-23T13:18:10.983Z,10132.00
2022-09-23T13:19:14.817Z,9912.00
2022-09-23T13:20:10.948Z,9684.00
2022-09-23T13:21:10.913Z,9536.00
2022-09-23T13:22:10.924Z,9460.00
2022-09-23T13:23:10.889Z,9424.00
2022-09-23T13:24:10.881Z,9400.00
2022-09-23T13:25:10.996Z,9468.00
2022-09-23T13:26:10.839Z,9732.00
2022-09-23T13:27:10.916Z,9720.00
2022-09-23T13:28:10.810Z,9668.00
2022-09-23T13:29:10.886Z,9740.00
2022-09-23T13:30:11.075Z,9928.00
2022-09-23T13:31:10.794Z,10092.00
2022-09-23T13:32:10.797Z,10440.00
2022-09-23T13:33:10.762Z,11080.00
2022-09-23T13:34:10.740Z,11428.00
2022-09-23T13:35:10.735Z,11516.00
2022-09-23T13:36:11.039Z,12028.00
2022-09-23T13:37:10.720Z,12412.00
2022-09-23T13:38:10.694Z,12168.00
2022-09-23T13:39:10.722Z,12136.00
2022-09-23T13:40:10.874Z,12112.00
2022-09-23T13:41:10.652Z,11480.00
2022-09-23T13:42:10.662Z,10552.00
2022-09-23T13:43:10.621Z,9964.00
2022-09-23T13:44:10.627Z,9552.00
2022-09-23T13:45:10.662Z,9168.00
2022-09-23T13:46:10.707Z,9036.00
2022-09-23T13:47:10.586Z,8792.00
2022-09-23T13:48:10.576Z,8464.00
2022-09-23T13:49:10.840Z,8228.00
2022-09-23T13:50:10.571Z,8128.00
2022-09-23T13:51:10.517Z,8436.00
2022-09-23T13:52:10.595Z,9112.00
2022-09-23T13:53:10.572Z,9680.00
2022-09-23T13:54:10.553Z,10492.00
2022-09-23T13:55:14.433Z,11528.00
2022-09-23T13:56:10.508Z,12244.00
2022-09-23T13:57:10.452Z,10964.00
2022-09-23T13:58:10.446Z,11388.00
2022-09-23T13:59:10.432Z,11976.00
2022-09-23T14:00:10.435Z,11052.00
2022-09-23T14:01:10.731Z,10752.00
2022-09-23T14:02:10.468Z,10452.00
2022-09-23T14:03:10.427Z,10100.00
2022-09-23T14:04:10.434Z,10220.00
2022-09-23T14:05:10.341Z,9908.00
2022-09-23T14:06:10.357Z,9576.00
2022-09-23T14:07:10.309Z,9220.00
2022-09-23T14:08:10.288Z,8996.00
2022-09-23T14:09:10.343Z,8952.00
2022-09-23T14:10:10.312Z,9036.00
2022-09-23T14:11:10.266Z,9108.00
2022-09-23T14:12:10.233Z,9272.00
2022-09-23T14:13:10.243Z,9256.00
2022-09-23T14:14:10.295Z,9236.00
2022-09-23T14:15:10.239Z,9120.00
2022-09-23T14:16:10.389Z,9092.00
2022-09-23T14:17:10.187Z,8940.00
2022-09-23T14:18:10.169Z,8808.00
2022-09-23T14:19:10.165Z,8712.00
2022-09-23T14:20:10.240Z,8188.00
2022-09-23T14:21:10.210Z,8116.00
2022-09-23T14:22:12.353Z,7776.00
2022-09-23T14:23:12.814Z,7572.00
2022-09-23T14:24:10.274Z,7404.00
2022-09-23T14:25:10.109Z,7240.00
2022-09-23T14:26:10.056Z,7048.00
2022-09-23T14:27:10.132Z,6892.00
2022-09-23T14:28:10.065Z,6784.00
2022-09-23T14:29:10.100Z,6704.00
2022-09-23T14:30:10.082Z,6580.00
2022-09-23T14:31:10.043Z,6448.00
2022-09-23T14:32:10.005Z,6376.00
2022-09-23T14:33:09.985Z,6308.00
2022-09-23T14:34:10.006Z,6260.00
2022-09-23T14:35:10.018Z,6220.00
2022-09-23T14:36:09.925Z,6180.00
2022-09-23T14:37:09.914Z,6176.00
2022-09-23T14:38:09.898Z,6172.00
2022-09-23T14:39:09.896Z,6176.00
2022-09-23T14:40:09.908Z,6176.00
2022-09-23T14:41:12.590Z,6144.00
2022-09-23T14:42:09.839Z,6108.00
2022-09-23T14:43:09.875Z,6080.00
2022-09-23T14:44:09.879Z,6076.00
2022-09-23T14:45:09.867Z,6104.00
2022-09-23T14:46:09.907Z,6140.00
2022-09-23T14:47:12.261Z,6148.00
2022-09-23T14:48:09.783Z,6160.00
2022-09-23T14:49:09.860Z,6200.00
2022-09-23T14:50:09.779Z,6228.00
2022-09-23T14:51:13.268Z,6228.00
2022-09-23T14:52:10.717Z,6120.00
2022-09-23T14:53:09.708Z,6004.00
2022-09-23T14:54:09.764Z,5864.00
2022-09-23T14:55:09.783Z,5680.00
2022-09-23T14:56:09.699Z,5540.00
2022-09-23T14:57:09.733Z,5432.00
2022-09-23T14:58:09.694Z,5316.00
2022-09-23T14:59:09.675Z,5192.00
2022-09-23T15:00:09.655Z,5068.00
2022-09-23T15:01:09.875Z,4920.00
2022-09-23T15:02:09.589Z,4748.00
2022-09-23T15:03:09.606Z,4568.00
2022-09-23T15:04:09.563Z,4392.00
2022-09-23T15:05:09.573Z,4228.00
2022-09-23T15:06:10.259Z,4104.00
2022-09-23T15:07:09.554Z,3996.00
2022-09-23T15:08:09.515Z,3920.00
2022-09-23T15:09:09.581Z,3884.00
2022-09-23T15:10:09.508Z,3892.00
2022-09-23T15:11:09.603Z,4020.00
2022-09-23T15:12:09.472Z,4008.00
2022-09-23T15:13:09.460Z,4076.00
2022-09-23T15:14:33.505Z,4156.00
2022-09-23T15:15:10.487Z,4200.00
2022-09-23T15:16:09.471Z,4196.00
2022-09-23T15:17:09.425Z,4184.00
2022-09-23T15:18:09.387Z,4168.00
2022-09-23T15:19:09.379Z,4132.00
2022-09-23T15:20:09.356Z,4064.00
2022-09-23T15:21:09.381Z,4036.00
2022-09-23T15:22:09.360Z,4020.00
2022-09-23T15:23:09.324Z,4020.00
2022-09-23T15:24:09.324Z,4068.00
2022-09-23T15:25:09.417Z,4128.00
2022-09-23T15:26:09.296Z,4184.00
2022-09-23T15:27:09.964Z,4232.00
2022-09-23T15:28:09.251Z,4264.00
2022-09-23T15:29:10.217Z,4288.00
2022-09-23T15:30:14.588Z,4296.00
2022-09-23T15:31:10.655Z,4300.00
2022-09-23T15:32:09.231Z,4292.00
2022-09-23T15:33:09.214Z,4284.00
2022-09-23T15:34:09.934Z,4276.00
2022-09-23T15:35:10.052Z,4272.00
2022-09-23T15:36:09.723Z,4276.00
2022-09-23T15:37:09.181Z,4280.00
2022-09-23T15:38:09.142Z,4264.00
2022-09-23T15:39:09.185Z,4224.00
2022-09-23T15:40:09.472Z,4156.00
2022-09-23T15:41:09.106Z,4060.00
2022-09-23T15:42:09.089Z,3936.00
2022-09-23T15:43:15.547Z,3784.00
2022-09-23T15:44:10.077Z,3612.00
2022-09-23T15:45:09.081Z,3428.00
2022-09-23T15:46:09.111Z,3256.00
2022-09-23T15:47:09.020Z,3112.00
2022-09-23T15:48:09.007Z,2976.00
2022-09-23T15:49:09.120Z,2864.00
2022-09-23T15:50:09.023Z,2756.00
2022-09-23T15:51:08.988Z,2652.00
2022-09-23T15:52:08.967Z,2544.00
2022-09-23T15:53:08.939Z,2424.00
2022-09-23T15:54:08.931Z,2300.00
2022-09-23T15:55:09.175Z,2168.00
2022-09-23T15:56:08.898Z,2048.00
2022-09-23T15:57:08.891Z,1952.00
2022-09-23T15:58:08.870Z,1868.00
2022-09-23T15:59:09.003Z,1804.00
2022-09-23T16:00:12.186Z,1748.00
2022-09-23T16:01:08.916Z,1700.00
2022-09-23T16:02:08.871Z,1672.00
2022-09-23T16:03:08.832Z,1672.00
2022-09-23T16:04:08.800Z,1704.00
2022-09-23T16:05:08.837Z,1756.00
2022-09-23T16:06:08.783Z,1812.00
2022-09-23T16:07:09.518Z,1852.00
2022-09-23T16:08:09.573Z,1880.00
2022-09-23T16:09:08.850Z,1884.00
2022-09-23T16:10:09.630Z,1864.00
2022-09-23T16:11:08.988Z,1848.00
2022-09-23T16:12:08.707Z,1844.00
2022-09-23T16:13:08.691Z,1848.00
2022-09-23T16:14:08.664Z,1848.00
2022-09-23T16:15:08.643Z,1828.00
2022-09-23T16:16:08.674Z,1784.00
2022-09-23T16:17:08.642Z,1740.00
2022-09-23T16:18:08.606Z,1700.00
2022-09-23T16:19:08.694Z,1680.00
2022-09-23T16:20:08.596Z,1672.00
2022-09-23T16:21:08.586Z,1656.00
2022-09-23T16:22:08.551Z,1632.00
2022-09-23T16:23:08.558Z,1588.00
2022-09-23T16:24:08.549Z,1532.00
2022-09-23T16:25:08.521Z,1480.00
2022-09-23T16:26:08.663Z,1420.00
2022-09-23T16:27:08.565Z,1356.00
2022-09-23T16:28:08.477Z,1280.00
2022-09-23T16:29:08.577Z,1208.00
2022-09-23T16:30:08.495Z,1128.00
2022-09-23T16:31:08.633Z,1056.00
2022-09-23T16:32:08.488Z,992.00
2022-09-23T16:33:08.486Z,944.00
2022-09-23T16:34:08.424Z,904.00
2022-09-23T16:35:08.389Z,876.00
2022-09-23T16:36:08.379Z,864.00
2022-09-23T16:37:08.363Z,860.00
2022-09-23T16:38:08.371Z,860.00
2022-09-23T16:39:08.399Z,860.00
2022-09-23T16:40:08.635Z,844.00
2022-09-23T16:41:08.735Z,820.00
2022-09-23T16:42:08.296Z,788.00
2022-09-23T16:43:08.312Z,748.00
2022-09-23T16:44:08.296Z,716.00
2022-09-23T16:45:08.276Z,680.00
2022-09-23T16:46:08.326Z,648.00
2022-09-23T16:47:08.259Z,616.00
2022-09-23T16:48:08.555Z,584.00
2022-09-23T16:49:08.321Z,548.00
2022-09-23T16:50:08.209Z,528.00
2022-09-23T16:51:08.214Z,504.00
2022-09-23T16:52:08.182Z,488.00
2022-09-23T16:53:08.195Z,472.00
2022-09-23T16:54:08.165Z,448.00
2022-09-23T16:55:08.209Z,428.00
2022-09-23T16:56:08.139Z,404.00
2022-09-23T16:57:08.139Z,384.00
2022-09-23T16:58:08.094Z,360.00
2022-09-23T16:59:08.251Z,340.00
2022-09-23T17:00:08.099Z,320.00
2022-09-23T17:01:08.212Z,300.00
2022-09-23T17:02:08.116Z,284.00
2022-09-23T17:03:08.440Z,268.00
2022-09-23T17:04:08.030Z,248.00
2022-09-23T17:05:08.020Z,228.00
2022-09-23T17:06:08.282Z,208.00
2022-09-23T17:07:07.998Z,188.00
2022-09-23T17:08:08.022Z,168.00
2022-09-23T17:09:07.949Z,148.00
2022-09-23T17:10:07.940Z,136.00
2022-09-23T17:11:07.938Z,124.00
2022-09-23T17:12:07.900Z,112.00
2022-09-23T17:13:07.899Z,100.00
2022-09-23T17:14:07.888Z,92.00
2022-09-23T17:15:07.918Z,80.00
2022-09-23T17:16:07.940Z,76.00
2022-09-23T17:17:07.852Z,68.00
2022-09-23T17:18:07.838Z,60.00
2022-09-23T17:19:08.875Z,56.00
2022-09-23T17:20:07.915Z,52.00
2022-09-23T17:21:07.809Z,48.00
2022-09-23T17:22:07.776Z,40.00
2022-09-23T17:23:07.824Z,40.00
2022-09-23T17:24:07.809Z,32.00
2022-09-23T17:25:07.725Z,28.00
2022-09-23T17:26:07.966Z,28.00
2022-09-23T17:27:07.709Z,24.00
2022-09-23T17:28:07.703Z,24.00
2022-09-23T17:29:07.783Z,20.00